Time;durP1;ratioP1;P1;durP2;ratioP2;P2;SDS_P1;SDS_P2;PMS_P1;PMS_P2;Temp;Humidity;BMP_temperature;BMP_pressure;BME280_temperature;BME280_humidity;BME280_pressure;Samples;Min_cycle;Max_cycle;Signal;HPM_P1;HPM_P2
2022/09/04 00:02:48;;;;;;;13.90;8.85;;;;;;;14.50;96.37;100520.83;2731624;84;21058;-89
2022/09/04 00:07:14;;;;;;;8.28;7.45;;;;;;;14.52;95.99;100522.86;2715688;85;21043;-87
2022/09/04 00:11:54;;;;;;;11.63;8.85;;;;;;;14.54;96.00;100533.40;2756234;85;21078;-90
2022/09/04 00:16:07;;;;;;;12.07;9.30;;;;;;;14.56;95.32;100535.47;2766723;84;21066;-88
2022/09/04 00:20:41;;;;;;;13.85;9.45;;;;;;;14.57;95.17;100531.80;2749802;84;21098;-88
2022/09/04 00:24:50;;;;;;;12.00;10.30;;;;;;;14.54;95.22;100534.73;2733881;85;21062;-87
2022/09/04 00:29:00;;;;;;;9.65;8.70;;;;;;;14.55;95.20;100543.14;2740790;85;21574;-85
2022/09/04 00:33:22;;;;;;;9.43;8.55;;;;;;;14.50;95.76;100540.04;2698479;86;21050;-87
2022/09/04 00:37:44;;;;;;;9.48;8.23;;;;;;;14.33;96.13;100542.47;2716814;85;21102;-87
2022/09/04 00:42:05;;;;;;;21.52;13.28;;;;;;;14.17;96.29;100536.38;2684216;87;21798;-88
2022/09/04 00:46:46;;;;;;;17.67;10.78;;;;;;;14.18;97.00;100543.93;2670880;87;22226;-87
2022/09/04 00:51:23;;;;;;;14.93;10.25;;;;;;;14.21;96.46;100553.00;2616386;88;21154;-88
2022/09/04 00:55:39;;;;;;;;;;;;;;;14.29;96.37;100555.80;2558387;91;21787;-88
2022/09/04 01:00:14;;;;;;;10.60;8.53;;;;;;;14.35;96.10;100557.92;2561112;91;20218;-88
2022/09/04 01:04:42;;;;;;;21.55;14.78;;;;;;;14.43;95.97;100570.06;2506771;93;21924;-88
2022/09/04 01:09:08;;;;;;;13.05;9.10;;;;;;;14.47;95.67;100577.33;2579711;90;21207;-89
2022/09/04 01:13:30;;;;;;;11.40;8.00;;;;;;;14.43;96.13;100574.08;2526892;93;21571;-88
2022/09/04 01:17:36;;;;;;;12.30;8.85;;;;;;;14.40;96.29;100565.01;2564631;91;21244;-90
2022/09/04 01:21:58;;;;;;;11.20;8.43;;;;;;;14.38;96.14;100567.47;2600080;90;21057;-89
2022/09/04 01:26:55;;;;;;;12.50;9.70;;;;;;;14.37;95.89;100567.98;2540272;91;21117;-88
2022/09/04 01:31:20;;;;;;;14.23;10.00;;;;;;;14.37;95.79;100580.02;2633092;86;21073;-89
2022/09/04 01:35:51;;;;;;;9.85;8.58;;;;;;;14.39;96.04;100573.17;2756630;84;21360;-90
2022/09/04 01:40:21;;;;;;;9.08;7.85;;;;;;;14.39;96.18;100571.34;2752240;84;21066;-87
2022/09/04 01:44:22;;;;;;;11.35;7.35;;;;;;;14.25;97.05;100568.64;2705414;86;21114;-88
2022/09/04 01:48:41;;;;;;;10.28;8.83;;;;;;;14.17;97.12;100566.32;2748227;84;21573;-87
2022/09/04 01:52:59;;;;;;;10.30;8.83;;;;;;;14.24;97.53;100575.45;2707550;86;21054;-87
2022/09/04 01:57:30;;;;;;;11.88;8.93;;;;;;;14.31;97.24;100575.22;2735091;85;21067;-86
2022/09/04 02:01:49;;;;;;;11.20;9.33;;;;;;;14.36;97.39;100572.98;2731996;85;21027;-87
2022/09/04 02:06:08;;;;;;;13.95;9.53;;;;;;;14.38;97.15;100569.66;2672385;86;21559;-83
2022/09/04 02:10:23;;;;;;;13.15;8.90;;;;;;;14.36;96.99;100572.98;2736292;84;21074;-87
2022/09/04 02:14:48;;;;;;;13.08;10.40;;;;;;;14.38;97.02;100568.80;2772403;83;21113;-87
2022/09/04 02:19:07;;;;;;;8.53;7.72;;;;;;;14.32;96.76;100571.55;2757757;84;21062;-87
2022/09/04 02:23:17;;;;;;;11.10;8.38;;;;;;;14.30;96.81;100566.84;2696718;86;21117;-87
2022/09/04 02:27:33;;;;;;;9.35;7.95;;;;;;;14.28;96.76;100564.33;2753914;84;21035;-86
2022/09/04 02:32:04;;;;;;;17.27;9.38;;;;;;;14.21;96.79;100559.69;2748563;85;21742;-87
2022/09/04 02:36:19;;;;;;;9.85;8.45;;;;;;;14.03;96.81;100560.41;2658177;87;21134;-87
2022/09/04 02:40:58;;;;;;;19.23;10.08;;;;;;;14.01;97.66;100555.70;2671551;87;21083;-87
2022/09/04 02:45:20;;;;;;;13.48;8.28;;;;;;;13.99;97.03;100559.84;2682501;87;21123;-87
2022/09/04 02:49:30;;;;;;;10.75;8.95;;;;;;;13.91;96.54;100568.22;2678883;87;21071;-89
2022/09/04 02:53:52;;;;;;;9.90;8.88;;;;;;;13.91;97.22;100572.22;2637034;88;21063;-88
2022/09/04 02:58:21;;;;;;;16.48;8.48;;;;;;;13.85;97.73;100569.61;2708812;86;21090;-87
2022/09/04 03:02:39;;;;;;;11.25;9.35;;;;;;;13.80;98.84;100568.72;2671150;86;21079;-88
2022/09/04 03:06:54;;;;;;;10.15;8.00;;;;;;;13.81;99.33;100569.55;2617916;90;21081;-88
2022/09/04 03:11:13;;;;;;;12.88;9.48;;;;;;;13.85;99.24;100565.13;2699684;84;21086;-89
2022/09/04 03:15:44;;;;;;;9.45;7.72;;;;;;;13.90;99.03;100568.72;2767267;83;21034;-89
2022/09/04 03:19:54;;;;;;;14.65;9.78;;;;;;;13.94;98.78;100560.77;2709328;86;21093;-89
2022/09/04 03:24:27;;;;;;;13.83;9.25;;;;;;;13.94;99.05;100562.58;2700188;87;21073;-87
2022/09/04 03:28:39;;;;;;;10.63;9.10;;;;;;;13.91;98.43;100554.36;2699288;86;21078;-87
2022/09/04 03:32:58;;;;;;;10.80;9.03;;;;;;;13.82;99.04;100564.08;2776912;84;21042;-89
2022/09/04 03:37:40;;;;;;;10.55;8.83;;;;;;;13.74;99.21;100571.93;2754052;84;21553;-89
2022/09/04 03:42:24;;;;;;;12.30;8.95;;;;;;;13.66;99.97;100569.98;2773426;84;21054;-88
2022/09/04 03:46:43;;;;;;;12.20;10.45;;;;;;;13.66;99.60;100582.48;2756122;84;21561;-90
2022/09/04 03:51:15;;;;;;;11.60;8.90;;;;;;;13.65;99.94;100590.16;2757037;84;21644;-89
2022/09/04 03:55:56;;;;;;;16.15;9.65;;;;;;;13.71;100.00;100589.11;2739719;84;21054;-89
2022/09/04 04:00:19;;;;;;;15.32;11.15;;;;;;;13.77;99.79;100596.22;2709787;86;21629;-89
2022/09/04 04:04:59;;;;;;;15.78;10.43;;;;;;;13.86;99.11;100594.06;2669859;87;21578;-87
2022/09/04 04:09:42;;;;;;;17.45;12.07;;;;;;;13.91;98.68;100596.29;2742310;84;21061;-88
2022/09/04 04:14:07;;;;;;;11.18;9.65;;;;;;;13.91;98.59;100593.62;2689392;86;21074;-87
2022/09/04 04:19:05;;;;;;;10.55;9.38;;;;;;;13.84;99.11;100590.17;2693680;85;21097;-89
2022/09/04 04:23:19;;;;;;;11.95;8.08;;;;;;;13.79;99.79;100592.43;2690035;85;21114;-89
2022/09/04 04:28:06;;;;;;;8.65;7.35;;;;;;;13.81;99.98;100606.50;2609334;88;21627;-90
2022/09/04 04:32:50;;;;;;;12.98;10.10;;;;;;;13.80;100.00;100602.62;2610661;88;21094;-90
2022/09/04 04:37:08;;;;;;;9.65;8.68;;;;;;;13.77;100.00;100610.44;2616620;88;21189;-88
2022/09/04 04:42:05;;;;;;;15.32;9.05;;;;;;;13.87;100.00;100601.57;2602505;88;21765;-84
2022/09/04 04:46:20;;;;;;;9.80;8.18;;;;;;;14.33;100.00;100599.17;2624499;88;21099;-89
2022/09/04 04:50:34;;;;;;;9.68;8.63;;;;;;;14.59;99.32;100607.45;2656940;86;21061;-88
2022/09/04 04:55:04;;;;;;;13.95;9.33;;;;;;;14.68;99.83;100612.42;2673708;87;21074;-88
2022/09/04 04:59:45;;;;;;;17.42;9.13;;;;;;;15.02;99.20;100623.13;2684872;87;21103;-87
2022/09/04 05:04:34;;;;;;;10.63;7.92;;;;;;;15.22;97.01;100621.20;2711547;86;21089;-89
2022/09/04 05:08:56;;;;;;;13.90;8.85;;;;;;;15.36;96.99;100620.72;2684604;86;21189;-88
2022/09/04 05:13:21;;;;;;;13.10;9.90;;;;;;;15.85;97.46;100627.13;2682715;86;21007;-89
2022/09/04 05:17:52;;;;;;;10.10;8.00;;;;;;;16.44;93.44;100627.19;2690841;86;21050;-89
2022/09/04 05:22:16;;;;;;;11.95;8.85;;;;;;;16.85;90.93;100627.46;2691525;86;21022;-90
2022/09/04 05:26:39;;;;;;;12.60;9.20;;;;;;;16.74;88.33;100634.94;2758543;84;20988;-89
2022/09/04 05:31:09;;;;;;;12.10;9.93;;;;;;;16.68;89.14;100639.92;2738448;86;21058;-89
2022/09/04 05:35:33;;;;;;;14.00;10.55;;;;;;;16.77;92.18;100650.73;2775973;84;21095;-88
2022/09/04 05:39:55;;;;;;;10.13;9.10;;;;;;;17.47;93.90;100648.95;2776387;84;21143;-89
2022/09/04 05:44:31;;;;;;;11.18;10.08;;;;;;;18.20;87.21;100646.61;2752636;84;21091;-87
2022/09/04 05:48:53;;;;;;;15.43;9.50;;;;;;;18.66;82.92;100646.92;2776687;82;21166;-89
2022/09/04 05:53:28;;;;;;;11.40;9.10;;;;;;;18.98;78.69;100649.76;2741467;85;21047;-89
2022/09/04 05:57:53;;;;;;;12.63;9.18;;;;;;;19.08;77.83;100651.77;2743476;84;20999;-88
2022/09/04 06:02:29;;;;;;;15.23;10.35;;;;;;;18.92;77.35;100653.98;2765668;83;21131;-88
2022/09/04 06:07:03;;;;;;;11.50;8.73;;;;;;;18.74;76.68;100661.42;2736049;85;21793;-88
2022/09/04 06:11:26;;;;;;;10.60;9.25;;;;;;;18.61;76.95;100666.81;2733405;85;21095;-88
2022/09/04 06:15:36;;;;;;;9.95;8.00;;;;;;;18.62;78.35;100673.88;2751516;85;21031;-86
2022/09/04 06:20:12;;;;;;;9.08;8.13;;;;;;;18.49;78.51;100669.00;2766338;84;21547;-88
2022/09/04 06:24:25;;;;;;;10.20;8.20;;;;;;;18.50;78.50;100673.91;2740803;84;21560;-88
2022/09/04 06:28:53;;;;;;;20.45;8.85;;;;;;;18.46;78.16;100679.27;2765052;84;21038;-88
2022/09/04 06:33:20;;;;;;;8.80;8.00;;;;;;;18.26;79.15;100679.59;2652394;87;21565;-88
2022/09/04 06:37:50;;;;;;;8.93;7.80;;;;;;;18.30;79.30;100672.89;2565461;91;29375;-87
2022/09/04 06:42:20;;;;;;;9.88;8.05;;;;;;;18.23;77.56;100673.20;2614674;89;21089;-88
2022/09/04 06:46:32;;;;;;;9.93;8.95;;;;;;;18.15;78.85;100682.62;2556502;91;21659;-89
2022/09/04 06:50:55;;;;;;;8.70;7.20;;;;;;;18.10;78.41;100685.31;2540115;91;21165;-87
2022/09/04 06:55:19;;;;;;;13.05;9.10;;;;;;;18.14;78.95;100688.50;2598685;90;21049;-88
2022/09/04 06:59:41;;;;;;;13.70;10.55;;;;;;;18.24;78.64;100693.73;2608970;89;21098;-90
2022/09/04 07:03:56;;;;;;;12.18;10.15;;;;;;;18.22;78.56;100698.44;2612589;89;21108;-90
2022/09/04 07:08:13;;;;;;;13.13;11.18;;;;;;;18.27;78.49;100701.47;2615953;88;21094;-90
2022/09/04 07:12:26;;;;;;;;;;;;;;;18.37;78.70;100701.31;2680917;86;21780;-89
2022/09/04 07:17:05;;;;;;;10.95;7.85;;;;;;;18.40;79.02;100705.87;2694322;86;20126;-90
2022/09/04 07:21:47;;;;;;;12.70;9.85;;;;;;;18.60;78.55;100709.58;2798968;83;21605;-94
2022/09/04 07:26:33;;;;;;;13.15;9.10;;;;;;;18.84;77.97;100713.27;2671755;87;21168;-92
2022/09/04 07:30:50;;;;;;;;;;;;;;;19.01;77.95;100715.48;2646249;87;21179;-91
2022/09/04 07:35:13;;;;;;;;;;;;;;;19.16;78.09;100716.97;2679499;87;20099;-87
2022/09/04 07:39:31;;;;;;;11.00;9.90;;;;;;;19.29;76.89;100718.30;2656295;87;20143;-91
2022/09/04 07:43:50;;;;;;;16.48;10.55;;;;;;;19.28;75.23;100730.92;2659160;87;21534;-87
2022/09/04 07:48:05;;;;;;;11.60;10.45;;;;;;;19.22;77.12;100716.27;2664866;86;21097;-90
2022/09/04 07:52:30;;;;;;;13.55;8.78;;;;;;;19.40;77.70;100723.30;2631008;87;21531;-89
2022/09/04 07:57:02;;;;;;;12.98;9.55;;;;;;;19.63;76.58;100731.48;2603618;88;21448;-91
2022/09/04 08:01:44;;;;;;;13.35;9.20;;;;;;;19.91;76.83;100742.34;2692880;85;21599;-90
2022/09/04 08:05:53;;;;;;;12.28;9.78;;;;;;;20.05;75.59;100747.03;2726217;85;21067;-90
2022/09/04 08:10:14;;;;;;;12.15;9.30;;;;;;;20.19;74.65;100756.72;2732287;83;21015;-91
2022/09/04 08:14:27;;;;;;;11.75;9.33;;;;;;;20.36;74.78;100761.53;2733786;85;21047;-90
2022/09/04 08:18:55;;;;;;;11.43;9.63;;;;;;;20.49;73.82;100766.34;2740232;84;21074;-91
2022/09/04 08:23:11;;;;;;;14.00;9.78;;;;;;;20.55;72.42;100763.77;2727010;85;21058;-91
2022/09/04 08:27:26;;;;;;;13.43;9.68;;;;;;;20.65;72.47;100762.16;2692827;86;21123;-91
2022/09/04 08:31:33;;;;;;;11.60;10.32;;;;;;;20.66;72.99;100771.10;2683128;86;21709;-91
2022/09/04 08:35:56;;;;;;;10.55;8.28;;;;;;;20.82;72.85;100768.80;2703722;87;21563;-91
2022/09/04 08:40:36;;;;;;;10.13;8.48;;;;;;;20.96;72.24;100772.06;2489410;93;21093;-91
2022/09/04 08:45:05;;;;;;;11.05;9.30;;;;;;;20.94;71.92;100774.64;2496361;93;21157;-91
2022/09/04 08:49:33;;;;;;;11.22;9.45;;;;;;;21.04;72.93;100768.45;2484690;94;21063;-92
2022/09/04 08:54:10;;;;;;;13.98;10.32;;;;;;;21.05;71.07;100774.19;2528442;92;21232;-91
2022/09/04 08:58:22;;;;;;;11.28;9.68;;;;;;;20.85;70.67;100781.98;2601432;90;21069;-92
2022/09/04 09:02:29;;;;;;;11.00;9.00;;;;;;;20.84;71.60;100791.11;2569997;89;21058;-90
2022/09/04 09:07:06;;;;;;;10.93;9.08;;;;;;;20.91;72.72;100792.55;2599497;89;21079;-89
2022/09/04 09:11:27;;;;;;;12.98;9.68;;;;;;;20.97;73.97;100787.27;2606987;89;21111;-88
2022/09/04 09:16:03;;;;;;;8.83;7.85;;;;;;;20.97;72.67;100791.31;2629149;87;21298;-91
2022/09/04 09:20:29;;;;;;;9.85;8.85;;;;;;;21.00;72.80;100790.63;2692078;86;21105;-91
2022/09/04 09:25:04;;;;;;;8.70;7.78;;;;;;;21.07;72.14;100783.48;2692761;86;21054;-89
2022/09/04 09:29:34;;;;;;;9.45;7.55;;;;;;;21.01;71.22;100799.92;2591780;89;21634;-90
2022/09/04 09:34:01;;;;;;;9.95;6.47;;;;;;;21.05;71.95;100795.00;2517116;93;21071;-90
2022/09/04 09:38:50;;;;;;;7.50;6.72;;;;;;;21.21;70.97;100794.81;2575108;89;21094;-90
2022/09/04 09:43:25;;;;;;;12.75;5.78;;;;;;;21.29;70.43;100800.66;2614492;89;21181;-94
2022/09/04 09:48:13;;;;;;;7.27;6.07;;;;;;;21.30;69.69;100806.40;2650586;89;21728;-90
2022/09/04 09:52:48;;;;;;;9.23;6.05;;;;;;;21.51;70.74;100806.19;2649324;89;21729;-92
2022/09/04 09:57:07;;;;;;;6.83;5.87;;;;;;;21.48;68.82;100801.16;2606047;89;21427;-91
2022/09/04 10:01:59;;;;;;;5.30;4.78;;;;;;;21.21;69.27;100794.81;2616918;89;21538;-88
2022/09/04 10:06:29;;;;;;;8.80;6.70;;;;;;;21.23;71.36;100800.91;2694640;84;21506;-91
2022/09/04 10:11:12;;;;;;;6.80;5.72;;;;;;;21.25;70.32;100801.56;2757650;84;21078;-93
2022/09/04 10:15:25;;;;;;;6.05;5.45;;;;;;;21.35;70.77;100796.39;2749951;84;21085;-95
2022/09/04 10:20:08;;;;;;;6.47;5.83;;;;;;;21.46;70.20;100798.65;2737092;85;21595;-94
2022/09/04 10:24:21;;;;;;;4.78;4.28;;;;;;;21.64;70.28;100800.16;2750043;85;21082;-93
2022/09/04 10:29:01;;;;;;;6.25;5.17;;;;;;;21.76;70.01;100794.61;2717305;85;21028;-94
2022/09/04 10:33:49;;;;;;;6.35;4.37;;;;;;;21.90;68.63;100792.09;2725109;85;21007;-96
2022/09/04 10:38:10;;;;;;;7.67;6.17;;;;;;;21.93;68.52;100795.77;2622170;89;21019;-96
2022/09/04 10:42:51;;;;;;;6.85;6.15;;;;;;;21.94;70.66;100793.38;2612141;88;21151;-94
2022/09/04 10:47:27;;;;;;;7.97;5.90;;;;;;;22.07;68.42;100785.94;2608519;88;21106;-96
2022/09/04 10:51:40;;;;;;;7.43;5.97;;;;;;;22.27;68.51;100786.18;2608214;89;21068;-95
2022/09/04 10:55:58;;;;;;;6.60;5.80;;;;;;;22.51;68.10;100772.82;2600586;89;21122;-93
2022/09/04 11:00:13;;;;;;;7.22;6.37;;;;;;;22.67;67.59;100771.71;2599510;89;21134;-93
2022/09/04 11:04:44;;;;;;;7.47;5.87;;;;;;;22.89;66.67;100764.91;2608719;89;21202;-93
2022/09/04 11:09:31;;;;;;;5.45;4.78;;;;;;;23.21;66.41;100756.38;2605870;89;21052;-92
2022/09/04 11:13:43;;;;;;;6.58;5.10;;;;;;;23.34;65.02;100750.23;2622621;87;21094;-95
2022/09/04 11:18:11;;;;;;;5.80;4.62;;;;;;;23.35;65.14;100758.69;2670407;86;21169;-92
2022/09/04 11:22:54;;;;;;;7.75;4.87;;;;;;;23.33;64.39;100762.98;2542725;91;21225;-94
2022/09/04 11:27:13;;;;;;;7.03;5.85;;;;;;;23.37;65.33;100755.25;2540775;91;21113;-95
2022/09/04 11:31:56;;;;;;;5.97;4.37;;;;;;;23.38;63.95;100759.64;2528708;92;21790;-91
2022/09/04 11:36:39;;;;;;;5.20;4.15;;;;;;;23.44;63.58;100753.44;2523972;92;21097;-94
2022/09/04 11:41:07;;;;;;;5.95;5.35;;;;;;;23.51;64.06;100758.38;2520045;92;21096;-93
2022/09/04 11:45:40;;;;;;;6.70;5.22;;;;;;;23.61;63.87;100756.65;2533202;92;21127;-94
2022/09/04 11:49:59;;;;;;;5.37;4.10;;;;;;;23.67;64.80;100746.87;2545163;91;21680;-95
2022/09/04 11:54:39;;;;;;;4.35;3.95;;;;;;;23.69;63.01;100744.78;2556545;91;21071;-94
2022/09/04 11:59:04;;;;;;;4.37;4.08;;;;;;;23.70;61.10;100758.68;2591191;89;21050;-96
2022/09/04 12:03:33;;;;;;;5.00;3.92;;;;;;;23.74;62.74;100746.91;2657808;85;21026;-95
2022/09/04 12:07:54;;;;;;;7.03;3.60;;;;;;;23.82;61.57;100742.14;2654048;87;21058;-93
2022/09/04 12:12:33;;;;;;;7.33;3.92;;;;;;;23.86;61.59;100741.73;2622947;88;21015;-92
2022/09/04 12:16:49;;;;;;;8.83;4.17;;;;;;;24.00;61.66;100739.89;2659821;87;21360;-92
2022/09/04 12:21:29;;;;;;;4.05;3.40;;;;;;;24.12;61.57;100731.50;2659158;87;21104;-89
2022/09/04 12:25:52;;;;;;;5.20;4.40;;;;;;;24.06;59.52;100737.23;2664030;85;21150;-90
2022/09/04 12:30:22;;;;;;;5.55;4.00;;;;;;;24.21;60.65;100738.41;2707118;87;21090;-90
2022/09/04 12:34:53;;;;;;;7.03;6.33;;;;;;;24.36;61.69;100745.02;2722705;85;21047;-90
2022/09/04 12:39:14;;;;;;;6.05;4.20;;;;;;;24.54;60.99;100749.02;2725568;85;21591;-90
2022/09/04 12:43:30;;;;;;;5.47;3.77;;;;;;;24.73;60.53;100745.16;2693930;87;21023;-89
2022/09/04 12:47:57;;;;;;;4.30;3.50;;;;;;;24.87;60.04;100749.59;2730228;85;21079;-92
2022/09/04 12:52:35;;;;;;;4.00;3.60;;;;;;;24.93;59.75;100750.11;2728552;84;21036;-91
2022/09/04 12:56:48;;;;;;;3.25;2.92;;;;;;;25.02;59.10;100750.73;2727445;86;21064;-89
2022/09/04 13:01:09;;;;;;;5.08;3.55;;;;;;;25.17;57.98;100749.67;2727212;86;21110;-90
2022/09/04 13:06:02;;;;;;;5.92;3.20;;;;;;;25.16;57.43;100757.02;2740529;86;21090;-94
2022/09/04 13:10:32;;;;;;;3.72;3.15;;;;;;;25.18;56.81;100751.34;2738527;85;21080;-94
2022/09/04 13:14:45;;;;;;;4.30;3.50;;;;;;;25.17;57.94;100761.42;2745285;85;20992;-92
2022/09/04 13:19:13;;;;;;;3.52;3.02;;;;;;;25.26;57.68;100751.66;2735872;86;21054;-91
2022/09/04 13:23:25;;;;;;;2.95;2.65;;;;;;;25.46;59.27;100753.80;2739178;85;21051;-93
2022/09/04 13:27:35;;;;;;;4.12;3.62;;;;;;;25.56;57.54;100761.56;2751682;84;21425;-90
2022/09/04 13:31:45;;;;;;;5.58;5.00;;;;;;;25.49;56.71;100767.56;2776051;83;21086;-92
2022/09/04 13:36:09;;;;;;;4.00;3.70;;;;;;;25.56;57.33;100768.91;2774258;84;21042;-93
2022/09/04 13:40:22;;;;;;;3.77;2.65;;;;;;;25.51;57.33;100769.00;2757154;86;21014;-92
2022/09/04 13:44:55;;;;;;;2.80;2.52;;;;;;;25.38;56.14;100775.83;2772459;85;21066;-89
2022/09/04 13:49:04;;;;;;;2.65;2.17;;;;;;;25.26;56.98;100766.63;2760139;84;21066;-92
2022/09/04 13:53:26;;;;;;;3.67;1.98;;;;;;;25.22;56.88;100767.05;2736124;86;21061;-93
2022/09/04 13:57:33;;;;;;;7.53;3.72;;;;;;;25.16;57.16;100772.50;2744931;86;21061;-91
2022/09/04 14:01:44;;;;;;;3.47;2.52;;;;;;;24.97;57.53;100779.65;2735400;85;21038;-92
2022/09/04 14:05:42;;;;;;;4.72;2.55;;;;;;;24.85;57.61;100780.26;2760067;86;21145;-92
2022/09/04 14:09:47;;;;;;;3.65;2.25;;;;;;;24.86;57.77;100778.36;2704521;86;21006;-91
2022/09/04 14:14:36;;;;;;;6.22;3.40;;;;;;;24.91;58.06;100779.41;2754162;84;21089;-92
2022/09/04 14:18:55;;;;;;;2.90;2.22;;;;;;;25.05;57.53;100776.70;2730312;86;21130;-89
2022/09/04 14:23:10;;;;;;;2.47;2.27;;;;;;;25.02;56.34;100770.32;2631943;89;21082;-94
2022/09/04 14:27:42;;;;;;;;;;;;;;;25.09;56.65;100770.63;2537256;91;21169;-90
2022/09/04 14:31:59;;;;;;;1.82;1.67;;;;;;;25.06;56.60;100773.78;2408694;97;20104;-91
2022/09/04 14:36:23;;;;;;;2.02;1.85;;;;;;;25.04;56.98;100775.03;2392499;97;21142;-88
2022/09/04 14:40:45;;;;;;;2.52;2.30;;;;;;;24.96;56.38;100778.80;2383684;97;21196;-91
2022/09/04 14:45:30;;;;;;;2.85;2.30;;;;;;;24.85;55.99;100784.34;2329750;98;21760;-90
2022/09/04 14:49:30;;;;;;;18.05;3.40;;;;;;;24.74;56.46;100777.61;2363901;96;21297;-91
2022/09/04 14:53:34;;;;;;;2.60;2.08;;;;;;;24.68;58.09;100775.19;2367607;96;21105;-88
2022/09/04 14:57:49;;;;;;;2.72;2.17;;;;;;;24.75;57.95;100777.95;2351027;96;21093;-87
2022/09/04 15:02:15;;;;;;;2.20;1.52;;;;;;;24.64;57.35;100786.17;2421699;96;21290;-88
2022/09/04 15:06:22;;;;;;;2.37;2.02;;;;;;;24.64;58.15;100780.73;2457246;89;21091;-88
2022/09/04 15:10:53;;;;;;;1.77;1.65;;;;;;;24.66;57.10;100777.28;2608241;90;21099;-87
2022/09/04 15:15:17;;;;;;;2.22;1.72;;;;;;;24.61;57.15;100786.59;2607610;89;21036;-87
2022/09/04 15:19:34;;;;;;;2.42;1.80;;;;;;;24.67;58.82;100789.84;2615490;88;21095;-87
2022/09/04 15:24:07;;;;;;;2.70;2.33;;;;;;;24.72;58.45;100788.38;2686068;87;21086;-87
2022/09/04 15:28:19;;;;;;;2.30;2.10;;;;;;;24.69;58.88;100792.36;2700006;85;21742;-87
2022/09/04 15:32:30;;;;;;;2.55;1.90;;;;;;;24.56;60.13;100786.36;2674875;85;21083;-87
2022/09/04 15:36:33;;;;;;;4.20;1.82;;;;;;;24.41;60.55;100785.19;2711361;87;21081;-87
2022/09/04 15:41:18;;;;;;;2.72;2.20;;;;;;;24.32;60.15;100788.61;2701280;86;21043;-87
2022/09/04 15:45:47;;;;;;;1.73;1.57;;;;;;;24.16;60.61;100789.83;2689589;85;21106;-87
2022/09/04 15:50:27;;;;;;;2.72;2.30;;;;;;;24.02;61.13;100784.88;2713788;87;21162;-88
2022/09/04 15:54:47;;;;;;;4.90;2.67;;;;;;;23.94;61.32;100789.08;2712263;85;21605;-86
2022/09/04 15:59:11;;;;;;;4.05;1.98;;;;;;;23.79;62.28;100799.58;2728558;85;21169;-89
2022/09/04 16:03:27;;;;;;;2.00;1.67;;;;;;;23.73;62.38;100809.87;2706617;86;21770;-86
2022/09/04 16:08:19;;;;;;;2.42;2.00;;;;;;;23.71;62.93;100803.80;2736168;87;21706;-87
2022/09/04 16:12:50;;;;;;;2.22;2.00;;;;;;;23.71;63.00;100809.23;2733178;86;21185;-89
2022/09/04 16:17:06;;;;;;;3.15;1.92;;;;;;;23.62;63.26;100811.80;2653142;88;21089;-86
2022/09/04 16:21:39;;;;;;;3.25;2.62;;;;;;;23.52;63.67;100810.27;2591677;90;22399;-90
2022/09/04 16:26:00;;;;;;;3.05;2.02;;;;;;;23.49;63.89;100814.75;2620265;88;21094;-89
2022/09/04 16:30:11;;;;;;;3.77;1.72;;;;;;;23.46;64.37;100815.15;2631726;88;21078;-88
2022/09/04 16:34:25;;;;;;;3.00;2.60;;;;;;;23.39;64.79;100816.99;2625102;88;21076;-87
2022/09/04 16:38:39;;;;;;;;;;;;;;;23.31;65.87;100809.84;2643481;88;21562;-87
2022/09/04 16:42:58;;;;;;;3.45;2.40;;;;;;;23.23;66.47;100823.50;2637894;86;20163;-88
2022/09/04 16:47:26;;;;;;;5.28;1.35;;;;;;;23.16;66.62;100828.87;2603465;90;21066;-88
2022/09/04 16:51:34;;;;;;;2.02;1.75;;;;;;;23.10;66.01;100829.66;2591036;88;21125;-87
2022/09/04 16:55:55;;;;;;;3.50;2.05;;;;;;;23.04;66.65;100833.17;2729194;85;21043;-87
2022/09/04 17:00:04;;;;;;;2.17;1.45;;;;;;;22.99;67.24;100834.25;2700266;86;21086;-88
2022/09/04 17:04:41;;;;;;;4.08;2.35;;;;;;;22.90;68.10;100839.00;2723387;85;20996;-89
2022/09/04 17:09:27;;;;;;;2.10;1.67;;;;;;;22.83;68.61;100841.64;2718071;85;21134;-87
2022/09/04 17:14:13;;;;;;;3.27;2.17;;;;;;;22.76;69.52;100842.06;2706893;85;21103;-87
2022/09/04 17:18:14;;;;;;;2.33;1.98;;;;;;;22.66;70.28;100846.45;2726034;85;21134;-88
2022/09/04 17:22:35;;;;;;;2.15;1.57;;;;;;;22.56;69.93;100856.78;2729039;85;22171;-87
2022/09/04 17:26:58;;;;;;;3.47;2.27;;;;;;;22.49;70.66;100862.12;2732355;84;21062;-87
2022/09/04 17:31:16;;;;;;;3.08;2.00;;;;;;;22.41;71.21;100868.47;2763618;84;21025;-89
2022/09/04 17:35:42;;;;;;;2.70;2.25;;;;;;;22.29;71.86;100869.47;2577545;90;21759;-88
2022/09/04 17:40:08;;;;;;;4.28;2.42;;;;;;;22.25;72.40;100874.95;2567189;91;21083;-88
2022/09/04 17:44:52;;;;;;;2.35;2.15;;;;;;;22.13;72.28;100876.45;2567218;91;21781;-87
2022/09/04 17:48:56;;;;;;;1.98;1.75;;;;;;;22.03;72.41;100879.44;2558267;91;21682;-88
2022/09/04 17:53:11;;;;;;;4.72;1.92;;;;;;;21.89;73.53;100888.72;2569643;90;21132;-86
2022/09/04 17:57:46;;;;;;;3.95;1.98;;;;;;;21.77;74.19;100892.41;2573246;90;21048;-88
2022/09/04 18:02:00;;;;;;;;;;;;;;;21.69;74.59;100896.56;2572407;90;21159;-86
2022/09/04 18:06:15;;;;;;;8.53;4.95;;;;;;;21.61;74.77;100909.62;2567922;91;20445;-86
2022/09/04 18:10:31;;;;;;;3.00;2.55;;;;;;;21.52;74.21;100909.39;2527714;91;21221;-86
2022/09/04 18:15:14;;;;;;;6.42;2.87;;;;;;;21.45;74.18;100920.59;2560426;91;21105;-87
2022/09/04 18:19:52;;;;;;;2.95;2.27;;;;;;;21.38;73.53;100923.19;2567485;91;21155;-86
2022/09/04 18:24:28;;;;;;;2.45;2.15;;;;;;;21.30;73.28;100928.67;2557744;91;21069;-86
2022/09/04 18:29:22;;;;;;;4.72;2.27;;;;;;;21.20;73.62;100928.39;2504662;93;21110;-87
2022/09/04 18:33:29;;;;;;;3.70;2.60;;;;;;;21.10;73.75;100938.09;2671276;87;21093;-87
2022/09/04 18:38:24;;;;;;;2.75;2.52;;;;;;;20.98;74.51;100945.78;2672731;87;21172;-87
2022/09/04 18:43:10;;;;;;;4.22;2.30;;;;;;;20.89;74.95;100944.16;2665025;88;21114;-88
2022/09/04 18:52:03;;;;;;;5.83;4.08;;;;;;;20.68;75.78;100951.00;2661229;89;21110;-93
2022/09/04 18:56:25;;;;;;;6.40;4.08;;;;;;;20.61;75.64;100950.00;2682318;87;21128;-91
2022/09/04 19:00:38;;;;;;;18.98;4.37;;;;;;;20.52;76.34;100961.36;2712012;85;21122;-89
2022/09/04 19:04:50;;;;;;;7.12;3.60;;;;;;;20.45;76.72;100968.48;2705559;85;21058;-90
2022/09/04 19:08:54;;;;;;;6.33;3.72;;;;;;;20.36;77.54;100973.60;2726299;85;21134;-90
2022/09/04 19:13:13;;;;;;;8.70;5.22;;;;;;;20.27;78.00;100966.03;2703176;85;21091;-91
2022/09/04 19:17:23;;;;;;;4.33;3.92;;;;;;;20.19;78.55;100966.03;2710211;85;21495;-89
2022/09/04 19:21:41;;;;;;;5.40;3.40;;;;;;;20.05;80.32;100967.09;2748677;84;21039;-90
2022/09/04 19:25:48;;;;;;;6.08;5.03;;;;;;;19.93;81.50;100973.86;2733247;85;21103;-92
2022/09/04 19:30:00;;;;;;;5.37;4.65;;;;;;;19.81;81.72;100979.56;2736623;84;21327;-92
2022/09/04 19:34:41;;;;;;;4.97;3.37;;;;;;;19.73;81.86;100982.28;2759258;84;21085;-91
2022/09/04 19:39:08;;;;;;;4.25;2.95;;;;;;;19.63;82.56;100988.34;2763100;84;21054;-90
2022/09/04 19:43:20;;;;;;;2.95;2.75;;;;;;;19.58;82.32;100995.61;2771621;84;21087;-90
2022/09/04 19:47:45;;;;;;;4.97;3.90;;;;;;;19.52;82.91;100991.72;2769331;83;21022;-91
2022/09/04 19:52:00;;;;;;;4.30;3.50;;;;;;;19.45;83.66;100986.64;2751998;85;21554;-93
2022/09/04 19:56:16;;;;;;;4.08;3.65;;;;;;;19.39;83.72;100988.66;2767572;84;21093;-90
2022/09/04 20:00:22;;;;;;;5.60;4.00;;;;;;;19.36;83.78;100987.16;2778393;84;22130;-90
2022/09/04 20:04:35;;;;;;;5.35;3.22;;;;;;;19.31;83.63;100989.50;2759693;85;21058;-92
2022/09/04 20:08:44;;;;;;;3.67;3.30;;;;;;;19.30;83.72;100991.03;2758025;85;21086;-89
2022/09/04 20:12:51;;;;;;;3.12;2.83;;;;;;;19.22;84.13;100983.24;2753442;84;21073;-88
2022/09/04 20:17:26;;;;;;;3.83;2.77;;;;;;;19.15;84.62;100984.92;2698221;86;21082;-91
2022/09/04 20:21:44;;;;;;;3.55;3.25;;;;;;;19.07;84.92;100980.36;2703953;86;21077;-91
2022/09/04 20:26:05;;;;;;;5.35;4.15;;;;;;;18.92;85.16;100981.96;2722733;85;21097;-92
2022/09/04 20:30:23;;;;;;;7.15;4.90;;;;;;;18.83;85.37;100982.44;2621840;88;21055;-92
2022/09/04 20:34:58;;;;;;;5.62;3.40;;;;;;;18.73;85.96;100984.44;2675720;87;21113;-90